25°C Temp
20°C Dewpoint
74% Humidity
Temperature
21 KM/H
13 MPH
11 KTS
50°
North East

Wind Speed
Clear
Conditions
Pressure 1013.92 (hPa) - 29.94 (in)
Visibility 6.2 (mi) - 10.0 (km)

Current Conditions
LEVC
Location 9(km)
Metar :LEVC 281900Z 05011KT 020V080 CAVOK 25/20 Q1014 NOSIG
Tue 28th June 20:00 pm

Airport
  Metar Aviation API Data Provided by https://www.checkwx.com/ PHP scripts by weather34.com ©2022